Farmville, VA

4:19 AM EDT on July 31, 2016 (GMT -0400)
Hampden-Sydney College | | Change Station

Elev 510 ft 37.24 °N, 78.46 °W | Updated 0 second ago

Fog
Fog
72.0 °F
Feels Like 72.0 °F
N
0.0
Wind Variable Wind from SSE
Gusts 2.0 mph

Today
High -- | Low -- °F
--% Chance of Precip.
Yesterday
High -- | Low -- °F
Precip. -- in
Pressure 29.94 in
Visibility 0.5 miles
Clouds Overcast 200 ft
Dew Point 72 °F
Humidity 100%
Rainfall 0.00 in
Snow Depth Not available.
6:17 AM 8:21 PM
Waning Crescent, 8% visible
METAR KFVX 310815Z AUTO 00000KT 1/2SM FG OVC002 23/23 A2994 RMK AO2 T02250225
Pressure 29.94 in
Visibility 0.5 miles
Clouds Overcast 200 ft
Dew Point 72 °F
Humidity 100%
Rainfall 0.00 in
Snow Depth Not available.
6:17 AM 8:21 PM
Waning Crescent, 8% visible
METAR KFVX 310815Z AUTO 00000KT 1/2SM FG OVC002 23/23 A2994 RMK AO2 T02250225

10-Day Weather Forecast

Almanac

Astronomy

Jul. 31, 2016 Rise Set
Actual Time
Civil Twilight
Nautical Twilight
Astronomical Twilight
Moon
Length of Visible Light
Length of Day
Tomorrow will be .
, % of the Moon is Illuminated

Today's Extremes

State Highs State Lows

Community

WunderPhotos

Upload Photos

1,928,768 photos uploaded!

WunderBlog® & News

Nearby

Air Quality

  Air Quality AQ Index Pollutant
Not available.

Snow Depth

Station Depth Elevation

Earthquake Activity

City Distance Mag. Time & Date
Minimum magnitude displayed is 2.5.

Coastal Water Temperatures

Place Temperature

Stations

Nearby Weather Stations

Station Location Temp. Windchill Dew Point Humidity Wind Precip. Elev Updated Type
                   

Watches & Warnings

There are currently no watches in effect.